sensor_id;sensor_type;location;lat;lon;timestamp;P1;durP1;ratioP1;P2;durP2;ratioP2
37383;SDS011;23258;49.718;11.082;2023-08-08T00:02:08;2.95;;;1.98;;
37383;SDS011;23258;49.718;11.082;2023-08-08T00:04:38;2.00;;;1.70;;
37383;SDS011;23258;49.718;11.082;2023-08-08T00:07:08;2.67;;;2.03;;
37383;SDS011;23258;49.718;11.082;2023-08-08T00:09:38;2.13;;;1.90;;
37383;SDS011;23258;49.718;11.082;2023-08-08T00:12:08;3.53;;;1.98;;
37383;SDS011;23258;49.718;11.082;2023-08-08T00:14:41;2.60;;;2.10;;
37383;SDS011;23258;49.718;11.082;2023-08-08T00:17:10;3.45;;;1.95;;
37383;SDS011;23258;49.718;11.082;2023-08-08T00:19:40;1.77;;;1.67;;
37383;SDS011;23258;49.718;11.082;2023-08-08T00:22:10;1.90;;;1.80;;
37383;SDS011;23258;49.718;11.082;2023-08-08T00:24:39;1.52;;;1.42;;
37383;SDS011;23258;49.718;11.082;2023-08-08T00:27:09;2.17;;;1.98;;
37383;SDS011;23258;49.718;11.082;2023-08-08T00:29:41;1.90;;;1.80;;
37383;SDS011;23258;49.718;11.082;2023-08-08T00:32:12;2.05;;;1.90;;
37383;SDS011;23258;49.718;11.082;2023-08-08T00:34:42;1.85;;;1.75;;
37383;SDS011;23258;49.718;11.082;2023-08-08T00:37:12;1.83;;;1.73;;
37383;SDS011;23258;49.718;11.082;2023-08-08T00:39:42;2.40;;;2.20;;
37383;SDS011;23258;49.718;11.082;2023-08-08T00:42:12;2.38;;;2.17;;
37383;SDS011;23258;49.718;11.082;2023-08-08T00:44:45;2.10;;;1.95;;
37383;SDS011;23258;49.718;11.082;2023-08-08T00:47:14;4.78;;;2.60;;
37383;SDS011;23258;49.718;11.082;2023-08-08T00:49:44;3.17;;;2.55;;
37383;SDS011;23258;49.718;11.082;2023-08-08T00:52:15;2.55;;;2.35;;
37383;SDS011;23258;49.718;11.082;2023-08-08T00:54:45;2.10;;;1.98;;
37383;SDS011;23258;49.718;11.082;2023-08-08T00:57:15;2.15;;;2.03;;
37383;SDS011;23258;49.718;11.082;2023-08-08T00:59:47;2.80;;;2.47;;
37383;SDS011;23258;49.718;11.082;2023-08-08T01:02:17;2.60;;;2.38;;
37383;SDS011;23258;49.718;11.082;2023-08-08T01:04:47;2.95;;;2.75;;
37383;SDS011;23258;49.718;11.082;2023-08-08T01:07:18;2.45;;;2.25;;
37383;SDS011;23258;49.718;11.082;2023-08-08T01:09:51;2.75;;;2.55;;
37383;SDS011;23258;49.718;11.082;2023-08-08T01:12:22;2.80;;;2.60;;
37383;SDS011;23258;49.718;11.082;2023-08-08T01:14:56;2.90;;;2.67;;
37383;SDS011;23258;49.718;11.082;2023-08-08T01:17:26;2.75;;;2.55;;
37383;SDS011;23258;49.718;11.082;2023-08-08T01:19:56;3.15;;;2.80;;
37383;SDS011;23258;49.718;11.082;2023-08-08T01:22:27;2.40;;;2.20;;
37383;SDS011;23258;49.718;11.082;2023-08-08T01:25:01;2.60;;;2.40;;
37383;SDS011;23258;49.718;11.082;2023-08-08T01:27:32;2.50;;;2.30;;
37383;SDS011;23258;49.718;11.082;2023-08-08T01:30:02;3.55;;;2.65;;
37383;SDS011;23258;49.718;11.082;2023-08-08T01:32:31;2.75;;;2.55;;
37383;SDS011;23258;49.718;11.082;2023-08-08T01:35:01;2.63;;;2.42;;
37383;SDS011;23258;49.718;11.082;2023-08-08T01:37:32;2.78;;;2.58;;
37383;SDS011;23258;49.718;11.082;2023-08-08T01:40:08;2.95;;;2.45;;
37383;SDS011;23258;49.718;11.082;2023-08-08T01:42:39;3.15;;;2.85;;
37383;SDS011;23258;49.718;11.082;2023-08-08T01:45:09;5.80;;;3.05;;
37383;SDS011;23258;49.718;11.082;2023-08-08T01:47:40;2.67;;;2.47;;
37383;SDS011;23258;49.718;11.082;2023-08-08T01:50:09;3.38;;;2.92;;
37383;SDS011;23258;49.718;11.082;2023-08-08T01:52:39;2.80;;;2.60;;
37383;SDS011;23258;49.718;11.082;2023-08-08T01:55:12;2.70;;;2.50;;
37383;SDS011;23258;49.718;11.082;2023-08-08T01:57:42;2.97;;;2.78;;
37383;SDS011;23258;49.718;11.082;2023-08-08T02:00:12;2.83;;;2.58;;
37383;SDS011;23258;49.718;11.082;2023-08-08T02:02:43;3.97;;;3.25;;
37383;SDS011;23258;49.718;11.082;2023-08-08T02:05:12;2.88;;;2.67;;
37383;SDS011;23258;49.718;11.082;2023-08-08T02:07:42;2.60;;;2.40;;
37383;SDS011;23258;49.718;11.082;2023-08-08T02:10:14;3.75;;;2.78;;
37383;SDS011;23258;49.718;11.082;2023-08-08T02:12:45;3.38;;;2.92;;
37383;SDS011;23258;49.718;11.082;2023-08-08T02:15:15;2.95;;;2.65;;
37383;SDS011;23258;49.718;11.082;2023-08-08T02:17:45;3.03;;;2.83;;
37383;SDS011;23258;49.718;11.082;2023-08-08T02:20:15;3.05;;;2.85;;
37383;SDS011;23258;49.718;11.082;2023-08-08T02:22:45;2.80;;;2.60;;
37383;SDS011;23258;49.718;11.082;2023-08-08T02:25:17;2.55;;;2.35;;
37383;SDS011;23258;49.718;11.082;2023-08-08T02:27:47;2.47;;;2.30;;
37383;SDS011;23258;49.718;11.082;2023-08-08T02:30:17;2.50;;;2.33;;
37383;SDS011;23258;49.718;11.082;2023-08-08T02:32:46;2.90;;;2.70;;
37383;SDS011;23258;49.718;11.082;2023-08-08T02:35:16;2.78;;;2.53;;
37383;SDS011;23258;49.718;11.082;2023-08-08T02:37:46;3.03;;;2.70;;
37383;SDS011;23258;49.718;11.082;2023-08-08T02:40:18;2.60;;;2.50;;
37383;SDS011;23258;49.718;11.082;2023-08-08T02:42:50;2.58;;;2.42;;
37383;SDS011;23258;49.718;11.082;2023-08-08T02:45:19;2.60;;;2.50;;
37383;SDS011;23258;49.718;11.082;2023-08-08T02:47:49;4.03;;;2.58;;
37383;SDS011;23258;49.718;11.082;2023-08-08T02:50:19;2.83;;;2.63;;
37383;SDS011;23258;49.718;11.082;2023-08-08T02:52:49;2.55;;;2.35;;
37383;SDS011;23258;49.718;11.082;2023-08-08T02:55:25;2.95;;;2.72;;
37383;SDS011;23258;49.718;11.082;2023-08-08T02:57:55;2.67;;;2.45;;
37383;SDS011;23258;49.718;11.082;2023-08-08T03:00:25;2.78;;;2.58;;
37383;SDS011;23258;49.718;11.082;2023-08-08T03:02:56;2.85;;;2.65;;
37383;SDS011;23258;49.718;11.082;2023-08-08T03:05:26;4.45;;;2.90;;
37383;SDS011;23258;49.718;11.082;2023-08-08T03:07:56;2.88;;;2.67;;
37383;SDS011;23258;49.718;11.082;2023-08-08T03:10:29;4.90;;;2.67;;
37383;SDS011;23258;49.718;11.082;2023-08-08T03:12:59;2.72;;;2.53;;
37383;SDS011;23258;49.718;11.082;2023-08-08T03:15:29;2.25;;;2.15;;
37383;SDS011;23258;49.718;11.082;2023-08-08T03:18:00;4.07;;;2.70;;
37383;SDS011;23258;49.718;11.082;2023-08-08T03:20:30;3.20;;;2.88;;
37383;SDS011;23258;49.718;11.082;2023-08-08T03:23:01;4.88;;;2.88;;
37383;SDS011;23258;49.718;11.082;2023-08-08T03:25:33;3.50;;;2.97;;
37383;SDS011;23258;49.718;11.082;2023-08-08T03:28:03;2.85;;;2.65;;
37383;SDS011;23258;49.718;11.082;2023-08-08T03:30:33;2.78;;;2.58;;
37383;SDS011;23258;49.718;11.082;2023-08-08T03:33:04;2.60;;;2.40;;
37383;SDS011;23258;49.718;11.082;2023-08-08T03:35:34;4.15;;;3.05;;
37383;SDS011;23258;49.718;11.082;2023-08-08T03:38:04;2.80;;;2.60;;
37383;SDS011;23258;49.718;11.082;2023-08-08T03:40:37;3.05;;;2.65;;
37383;SDS011;23258;49.718;11.082;2023-08-08T03:43:07;3.25;;;2.90;;
37383;SDS011;23258;49.718;11.082;2023-08-08T03:45:36;2.97;;;2.78;;
37383;SDS011;23258;49.718;11.082;2023-08-08T03:48:06;3.20;;;2.65;;
37383;SDS011;23258;49.718;11.082;2023-08-08T03:50:35;2.55;;;2.35;;
37383;SDS011;23258;49.718;11.082;2023-08-08T03:53:06;3.30;;;2.75;;
37383;SDS011;23258;49.718;11.082;2023-08-08T03:55:38;2.95;;;2.75;;
37383;SDS011;23258;49.718;11.082;2023-08-08T03:58:08;4.28;;;2.97;;
37383;SDS011;23258;49.718;11.082;2023-08-08T04:00:38;3.20;;;2.90;;
37383;SDS011;23258;49.718;11.082;2023-08-08T04:03:13;3.45;;;3.15;;
37383;SDS011;23258;49.718;11.082;2023-08-08T04:05:43;3.00;;;2.80;;
37383;SDS011;23258;49.718;11.082;2023-08-08T04:08:14;2.65;;;2.50;;
37383;SDS011;23258;49.718;11.082;2023-08-08T04:10:51;3.92;;;2.97;;
37383;SDS011;23258;49.718;11.082;2023-08-08T04:13:21;2.92;;;2.72;;
37383;SDS011;23258;49.718;11.082;2023-08-08T04:15:51;3.15;;;2.47;;
37383;SDS011;23258;49.718;11.082;2023-08-08T04:18:21;2.80;;;2.60;;
37383;SDS011;23258;49.718;11.082;2023-08-08T04:20:50;2.08;;;1.85;;
37383;SDS011;23258;49.718;11.082;2023-08-08T04:23:20;5.10;;;2.85;;
37383;SDS011;23258;49.718;11.082;2023-08-08T04:25:54;2.90;;;2.70;;
37383;SDS011;23258;49.718;11.082;2023-08-08T04:28:24;2.85;;;2.65;;
37383;SDS011;23258;49.718;11.082;2023-08-08T04:30:54;3.60;;;2.45;;
37383;SDS011;23258;49.718;11.082;2023-08-08T04:33:23;4.65;;;2.88;;
37383;SDS011;23258;49.718;11.082;2023-08-08T04:35:53;2.85;;;2.60;;
37383;SDS011;23258;49.718;11.082;2023-08-08T04:38:23;2.67;;;2.42;;
37383;SDS011;23258;49.718;11.082;2023-08-08T04:40:55;2.85;;;2.65;;
37383;SDS011;23258;49.718;11.082;2023-08-08T04:43:25;2.70;;;2.50;;
37383;SDS011;23258;49.718;11.082;2023-08-08T04:45:55;4.15;;;2.53;;
37383;SDS011;23258;49.718;11.082;2023-08-08T04:48:24;2.85;;;2.65;;
37383;SDS011;23258;49.718;11.082;2023-08-08T04:50:54;2.78;;;2.58;;
37383;SDS011;23258;49.718;11.082;2023-08-08T04:53:24;3.00;;;2.80;;
37383;SDS011;23258;49.718;11.082;2023-08-08T04:55:56;2.95;;;2.75;;
37383;SDS011;23258;49.718;11.082;2023-08-08T04:58:26;2.60;;;2.50;;
37383;SDS011;23258;49.718;11.082;2023-08-08T05:00:55;3.05;;;2.75;;
37383;SDS011;23258;49.718;11.082;2023-08-08T05:03:25;3.13;;;2.92;;
37383;SDS011;23258;49.718;11.082;2023-08-08T05:05:55;2.47;;;2.30;;
37383;SDS011;23258;49.718;11.082;2023-08-08T05:08:26;2.92;;;2.72;;
37383;SDS011;23258;49.718;11.082;2023-08-08T05:10:58;2.63;;;2.50;;
37383;SDS011;23258;49.718;11.082;2023-08-08T05:13:28;4.10;;;3.72;;
37383;SDS011;23258;49.718;11.082;2023-08-08T05:15:58;3.95;;;2.70;;
37383;SDS011;23258;49.718;11.082;2023-08-08T05:18:28;2.75;;;2.55;;
37383;SDS011;23258;49.718;11.082;2023-08-08T05:20:57;2.30;;;2.10;;
37383;SDS011;23258;49.718;11.082;2023-08-08T05:23:27;2.78;;;2.53;;
37383;SDS011;23258;49.718;11.082;2023-08-08T05:25:59;2.63;;;2.33;;
37383;SDS011;23258;49.718;11.082;2023-08-08T05:28:30;2.88;;;2.60;;
37383;SDS011;23258;49.718;11.082;2023-08-08T05:30:59;2.40;;;2.20;;
37383;SDS011;23258;49.718;11.082;2023-08-08T05:33:29;2.30;;;2.20;;
37383;SDS011;23258;49.718;11.082;2023-08-08T05:35:59;3.15;;;2.85;;
37383;SDS011;23258;49.718;11.082;2023-08-08T05:38:29;2.78;;;2.58;;
37383;SDS011;23258;49.718;11.082;2023-08-08T05:41:01;4.05;;;2.47;;
37383;SDS011;23258;49.718;11.082;2023-08-08T05:43:31;2.42;;;2.30;;
37383;SDS011;23258;49.718;11.082;2023-08-08T05:46:00;4.85;;;2.80;;
37383;SDS011;23258;49.718;11.082;2023-08-08T05:48:30;2.50;;;2.28;;
37383;SDS011;23258;49.718;11.082;2023-08-08T05:51:00;2.85;;;2.65;;
37383;SDS011;23258;49.718;11.082;2023-08-08T05:53:31;5.22;;;2.28;;
37383;SDS011;23258;49.718;11.082;2023-08-08T05:56:04;2.25;;;2.05;;
37383;SDS011;23258;49.718;11.082;2023-08-08T05:58:35;5.43;;;2.30;;
37383;SDS011;23258;49.718;11.082;2023-08-08T06:01:05;2.05;;;1.95;;
37383;SDS011;23258;49.718;11.082;2023-08-08T06:03:36;2.50;;;2.40;;
37383;SDS011;23258;49.718;11.082;2023-08-08T06:06:06;4.38;;;2.28;;
37383;SDS011;23258;49.718;11.082;2023-08-08T06:08:36;2.45;;;2.25;;
37383;SDS011;23258;49.718;11.082;2023-08-08T06:11:08;2.85;;;2.40;;
37383;SDS011;23258;49.718;11.082;2023-08-08T06:13:38;3.42;;;2.30;;
37383;SDS011;23258;49.718;11.082;2023-08-08T06:16:08;2.22;;;2.03;;
37383;SDS011;23258;49.718;11.082;2023-08-08T06:18:38;2.42;;;2.22;;
37383;SDS011;23258;49.718;11.082;2023-08-08T06:21:07;1.83;;;1.73;;
37383;SDS011;23258;49.718;11.082;2023-08-08T06:23:37;3.35;;;2.40;;
37383;SDS011;23258;49.718;11.082;2023-08-08T06:26:09;1.80;;;1.70;;
37383;SDS011;23258;49.718;11.082;2023-08-08T06:28:39;1.83;;;1.73;;
37383;SDS011;23258;49.718;11.082;2023-08-08T06:31:09;3.22;;;1.50;;
37383;SDS011;23258;49.718;11.082;2023-08-08T06:33:38;2.33;;;1.85;;
37383;SDS011;23258;49.718;11.082;2023-08-08T06:36:08;1.77;;;1.67;;
37383;SDS011;23258;49.718;11.082;2023-08-08T06:38:38;2.15;;;2.05;;
37383;SDS011;23258;49.718;11.082;2023-08-08T06:41:10;2.33;;;2.13;;
37383;SDS011;23258;49.718;11.082;2023-08-08T06:43:40;3.25;;;1.90;;
37383;SDS011;23258;49.718;11.082;2023-08-08T06:46:10;2.53;;;1.77;;
37383;SDS011;23258;49.718;11.082;2023-08-08T06:48:42;2.25;;;2.13;;
37383;SDS011;23258;49.718;11.082;2023-08-08T06:51:12;1.98;;;1.83;;
37383;SDS011;23258;49.718;11.082;2023-08-08T06:53:42;2.08;;;1.88;;
37383;SDS011;23258;49.718;11.082;2023-08-08T06:56:14;2.50;;;1.65;;
37383;SDS011;23258;49.718;11.082;2023-08-08T06:58:44;1.65;;;1.55;;
37383;SDS011;23258;49.718;11.082;2023-08-08T07:01:14;1.80;;;1.70;;
37383;SDS011;23258;49.718;11.082;2023-08-08T07:03:44;2.17;;;1.98;;
37383;SDS011;23258;49.718;11.082;2023-08-08T07:06:16;1.58;;;1.48;;
37383;SDS011;23258;49.718;11.082;2023-08-08T07:08:46;1.48;;;1.38;;
37383;SDS011;23258;49.718;11.082;2023-08-08T07:11:18;2.28;;;1.92;;
37383;SDS011;23258;49.718;11.082;2023-08-08T07:13:48;2.72;;;1.33;;
37383;SDS011;23258;49.718;11.082;2023-08-08T07:16:18;1.80;;;1.70;;
37383;SDS011;23258;49.718;11.082;2023-08-08T07:18:48;1.98;;;1.88;;
37383;SDS011;23258;49.718;11.082;2023-08-08T07:21:21;1.45;;;1.35;;
37383;SDS011;23258;49.718;11.082;2023-08-08T07:23:50;1.40;;;1.40;;
37383;SDS011;23258;49.718;11.082;2023-08-08T07:26:23;2.15;;;1.55;;
37383;SDS011;23258;49.718;11.082;2023-08-08T07:28:52;1.65;;;1.55;;
37383;SDS011;23258;49.718;11.082;2023-08-08T07:31:22;1.50;;;1.40;;
37383;SDS011;23258;49.718;11.082;2023-08-08T07:33:52;1.70;;;1.20;;
37383;SDS011;23258;49.718;11.082;2023-08-08T07:36:22;1.60;;;1.40;;
37383;SDS011;23258;49.718;11.082;2023-08-08T07:38:52;2.00;;;1.60;;
37383;SDS011;23258;49.718;11.082;2023-08-08T07:41:25;1.20;;;1.10;;
37383;SDS011;23258;49.718;11.082;2023-08-08T07:43:55;1.10;;;1.10;;
37383;SDS011;23258;49.718;11.082;2023-08-08T07:46:25;7.72;;;1.40;;
37383;SDS011;23258;49.718;11.082;2023-08-08T07:48:55;1.20;;;1.20;;
37383;SDS011;23258;49.718;11.082;2023-08-08T07:51:26;1.20;;;1.20;;
37383;SDS011;23258;49.718;11.082;2023-08-08T07:53:55;1.30;;;1.30;;
37383;SDS011;23258;49.718;11.082;2023-08-08T07:56:27;1.23;;;1.13;;
37383;SDS011;23258;49.718;11.082;2023-08-08T07:58:57;1.40;;;1.33;;
37383;SDS011;23258;49.718;11.082;2023-08-08T08:01:28;1.45;;;1.08;;
37383;SDS011;23258;49.718;11.082;2023-08-08T08:03:58;1.10;;;1.02;;
37383;SDS011;23258;49.718;11.082;2023-08-08T08:06:29;1.15;;;1.13;;
37383;SDS011;23258;49.718;11.082;2023-08-08T08:08:59;1.25;;;1.17;;
37383;SDS011;23258;49.718;11.082;2023-08-08T08:11:32;1.52;;;1.42;;
37383;SDS011;23258;49.718;11.082;2023-08-08T08:14:02;1.70;;;1.00;;
37383;SDS011;23258;49.718;11.082;2023-08-08T08:16:32;1.80;;;1.15;;
37383;SDS011;23258;49.718;11.082;2023-08-08T08:19:04;1.20;;;1.20;;
37383;SDS011;23258;49.718;11.082;2023-08-08T08:21:34;2.30;;;1.52;;
37383;SDS011;23258;49.718;11.082;2023-08-08T08:24:04;0.98;;;0.90;;
37383;SDS011;23258;49.718;11.082;2023-08-08T08:26:36;1.20;;;1.10;;
37383;SDS011;23258;49.718;11.082;2023-08-08T08:29:06;1.58;;;1.10;;
37383;SDS011;23258;49.718;11.082;2023-08-08T08:31:36;2.58;;;1.40;;
37383;SDS011;23258;49.718;11.082;2023-08-08T08:34:06;1.52;;;1.42;;
37383;SDS011;23258;49.718;11.082;2023-08-08T08:36:35;2.28;;;1.27;;
37383;SDS011;23258;49.718;11.082;2023-08-08T08:39:05;2.42;;;0.90;;
37383;SDS011;23258;49.718;11.082;2023-08-08T08:41:38;0.95;;;0.95;;
37383;SDS011;23258;49.718;11.082;2023-08-08T08:44:07;1.05;;;0.90;;
37383;SDS011;23258;49.718;11.082;2023-08-08T08:46:37;2.55;;;0.73;;
37383;SDS011;23258;49.718;11.082;2023-08-08T08:49:07;1.05;;;0.95;;
37383;SDS011;23258;49.718;11.082;2023-08-08T08:51:37;1.30;;;1.23;;
37383;SDS011;23258;49.718;11.082;2023-08-08T08:54:07;0.68;;;0.68;;
37383;SDS011;23258;49.718;11.082;2023-08-08T08:56:39;2.40;;;0.90;;
37383;SDS011;23258;49.718;11.082;2023-08-08T08:59:09;1.20;;;1.10;;
37383;SDS011;23258;49.718;11.082;2023-08-08T09:01:38;0.88;;;0.88;;
37383;SDS011;23258;49.718;11.082;2023-08-08T09:04:08;1.00;;;1.00;;
37383;SDS011;23258;49.718;11.082;2023-08-08T09:06:38;2.63;;;0.82;;
37383;SDS011;23258;49.718;11.082;2023-08-08T09:09:08;2.03;;;1.50;;
37383;SDS011;23258;49.718;11.082;2023-08-08T09:11:46;1.23;;;1.10;;
37383;SDS011;23258;49.718;11.082;2023-08-08T09:14:17;0.93;;;0.88;;
37383;SDS011;23258;49.718;11.082;2023-08-08T09:16:47;1.30;;;1.20;;
37383;SDS011;23258;49.718;11.082;2023-08-08T09:19:18;0.82;;;0.73;;
37383;SDS011;23258;49.718;11.082;2023-08-08T09:21:48;1.20;;;1.10;;
37383;SDS011;23258;49.718;11.082;2023-08-08T09:24:18;1.05;;;1.05;;
37383;SDS011;23258;49.718;11.082;2023-08-08T09:26:50;0.95;;;0.95;;
37383;SDS011;23258;49.718;11.082;2023-08-08T09:29:21;0.90;;;0.90;;
37383;SDS011;23258;49.718;11.082;2023-08-08T09:31:50;1.85;;;1.10;;
37383;SDS011;23258;49.718;11.082;2023-08-08T09:34:23;0.80;;;0.80;;
37383;SDS011;23258;49.718;11.082;2023-08-08T09:36:53;0.90;;;0.90;;
37383;SDS011;23258;49.718;11.082;2023-08-08T09:39:23;0.88;;;0.82;;
37383;SDS011;23258;49.718;11.082;2023-08-08T09:41:55;0.68;;;0.68;;
37383;SDS011;23258;49.718;11.082;2023-08-08T09:44:26;1.50;;;1.40;;
37383;SDS011;23258;49.718;11.082;2023-08-08T09:46:56;1.15;;;1.05;;
37383;SDS011;23258;49.718;11.082;2023-08-08T09:49:26;0.98;;;0.98;;
37383;SDS011;23258;49.718;11.082;2023-08-08T09:51:55;1.00;;;1.00;;
37383;SDS011;23258;49.718;11.082;2023-08-08T09:54:26;0.77;;;0.77;;
37383;SDS011;23258;49.718;11.082;2023-08-08T09:56:58;2.17;;;0.85;;
37383;SDS011;23258;49.718;11.082;2023-08-08T09:59:28;0.60;;;0.60;;
37383;SDS011;23258;49.718;11.082;2023-08-08T10:01:58;1.27;;;1.02;;
37383;SDS011;23258;49.718;11.082;2023-08-08T10:04:29;5.18;;;1.38;;
37383;SDS011;23258;49.718;11.082;2023-08-08T10:06:58;1.25;;;0.77;;
37383;SDS011;23258;49.718;11.082;2023-08-08T10:09:28;1.10;;;0.75;;
37383;SDS011;23258;49.718;11.082;2023-08-08T10:12:00;1.65;;;1.05;;
37383;SDS011;23258;49.718;11.082;2023-08-08T10:14:31;0.73;;;0.73;;
37383;SDS011;23258;49.718;11.082;2023-08-08T10:17:02;3.33;;;1.17;;
37383;SDS011;23258;49.718;11.082;2023-08-08T10:19:32;0.80;;;0.80;;
37383;SDS011;23258;49.718;11.082;2023-08-08T10:22:03;2.40;;;1.00;;
37383;SDS011;23258;49.718;11.082;2023-08-08T10:24:34;0.70;;;0.70;;
37383;SDS011;23258;49.718;11.082;2023-08-08T10:27:06;1.58;;;1.10;;
37383;SDS011;23258;49.718;11.082;2023-08-08T10:29:37;1.05;;;1.05;;
37383;SDS011;23258;49.718;11.082;2023-08-08T10:32:07;0.98;;;0.98;;
37383;SDS011;23258;49.718;11.082;2023-08-08T10:34:37;1.52;;;1.13;;
37383;SDS011;23258;49.718;11.082;2023-08-08T10:37:08;1.02;;;0.73;;
37383;SDS011;23258;49.718;11.082;2023-08-08T10:39:48;1.20;;;1.10;;
37383;SDS011;23258;49.718;11.082;2023-08-08T10:42:20;0.50;;;0.50;;
37383;SDS011;23258;49.718;11.082;2023-08-08T10:44:52;1.77;;;1.00;;
37383;SDS011;23258;49.718;11.082;2023-08-08T10:47:22;0.90;;;0.90;;
37383;SDS011;23258;49.718;11.082;2023-08-08T10:49:59;1.20;;;1.10;;
37383;SDS011;23258;49.718;11.082;2023-08-08T10:52:33;2.28;;;1.20;;
37383;SDS011;23258;49.718;11.082;2023-08-08T10:55:07;0.80;;;0.80;;
37383;SDS011;23258;49.718;11.082;2023-08-08T10:57:55;1.02;;;0.90;;
37383;SDS011;23258;49.718;11.082;2023-08-08T11:00:27;1.85;;;1.10;;
37383;SDS011;23258;49.718;11.082;2023-08-08T11:02:57;1.20;;;1.10;;
37383;SDS011;23258;49.718;11.082;2023-08-08T11:05:28;1.15;;;0.88;;
37383;SDS011;23258;49.718;11.082;2023-08-08T11:07:58;1.05;;;0.70;;
37383;SDS011;23258;49.718;11.082;2023-08-08T11:10:28;0.90;;;0.90;;
37383;SDS011;23258;49.718;11.082;2023-08-08T11:13:03;0.80;;;0.80;;
37383;SDS011;23258;49.718;11.082;2023-08-08T11:15:34;1.35;;;1.20;;
37383;SDS011;23258;49.718;11.082;2023-08-08T11:18:05;0.90;;;0.90;;
37383;SDS011;23258;49.718;11.082;2023-08-08T11:20:36;0.90;;;0.90;;
37383;SDS011;23258;49.718;11.082;2023-08-08T11:23:06;0.85;;;0.85;;
37383;SDS011;23258;49.718;11.082;2023-08-08T11:25:39;1.52;;;0.98;;
37383;SDS011;23258;49.718;11.082;2023-08-08T11:28:12;1.20;;;1.10;;
37383;SDS011;23258;49.718;11.082;2023-08-08T11:30:42;1.10;;;0.88;;
37383;SDS011;23258;49.718;11.082;2023-08-08T11:33:12;0.80;;;0.80;;
37383;SDS011;23258;49.718;11.082;2023-08-08T11:35:43;6.47;;;1.02;;
37383;SDS011;23258;49.718;11.082;2023-08-08T11:38:13;1.85;;;0.77;;
37383;SDS011;23258;49.718;11.082;2023-08-08T11:40:43;1.80;;;0.90;;
37383;SDS011;23258;49.718;11.082;2023-08-08T11:43:16;1.13;;;1.02;;
37383;SDS011;23258;49.718;11.082;2023-08-08T11:45:46;0.75;;;0.75;;
37383;SDS011;23258;49.718;11.082;2023-08-08T11:48:20;1.00;;;1.00;;
37383;SDS011;23258;49.718;11.082;2023-08-08T11:50:52;0.88;;;0.88;;
37383;SDS011;23258;49.718;11.082;2023-08-08T11:53:22;0.93;;;0.93;;
37383;SDS011;23258;49.718;11.082;2023-08-08T11:55:52;0.85;;;0.85;;
37383;SDS011;23258;49.718;11.082;2023-08-08T11:58:26;1.48;;;1.38;;
37383;SDS011;23258;49.718;11.082;2023-08-08T12:00:56;1.48;;;0.70;;
37383;SDS011;23258;49.718;11.082;2023-08-08T12:03:26;1.38;;;0.88;;
37383;SDS011;23258;49.718;11.082;2023-08-08T12:05:55;2.13;;;1.33;;
37383;SDS011;23258;49.718;11.082;2023-08-08T12:08:25;1.02;;;1.00;;
37383;SDS011;23258;49.718;11.082;2023-08-08T12:11:00;1.05;;;0.98;;
37383;SDS011;23258;49.718;11.082;2023-08-08T12:13:33;1.30;;;1.05;;
37383;SDS011;23258;49.718;11.082;2023-08-08T12:16:03;0.93;;;0.88;;
37383;SDS011;23258;49.718;11.082;2023-08-08T12:18:43;1.33;;;0.85;;
37383;SDS011;23258;49.718;11.082;2023-08-08T12:21:13;1.08;;;0.98;;
37383;SDS011;23258;49.718;11.082;2023-08-08T12:23:43;0.55;;;0.55;;
37383;SDS011;23258;49.718;11.082;2023-08-08T12:26:12;2.88;;;1.17;;
37383;SDS011;23258;49.718;11.082;2023-08-08T12:28:45;1.27;;;1.20;;
37383;SDS011;23258;49.718;11.082;2023-08-08T12:31:17;0.98;;;0.95;;
37383;SDS011;23258;49.718;11.082;2023-08-08T12:33:46;0.90;;;0.90;;
37383;SDS011;23258;49.718;11.082;2023-08-08T12:36:18;0.73;;;0.73;;
37383;SDS011;23258;49.718;11.082;2023-08-08T12:38:48;0.95;;;0.95;;
37383;SDS011;23258;49.718;11.082;2023-08-08T12:41:18;1.27;;;1.13;;
37383;SDS011;23258;49.718;11.082;2023-08-08T12:43:50;0.90;;;0.90;;
37383;SDS011;23258;49.718;11.082;2023-08-08T12:46:20;1.90;;;1.27;;
37383;SDS011;23258;49.718;11.082;2023-08-08T12:48:49;1.80;;;1.10;;
37383;SDS011;23258;49.718;11.082;2023-08-08T12:51:19;3.05;;;1.33;;
37383;SDS011;23258;49.718;11.082;2023-08-08T12:53:49;2.42;;;0.98;;
37383;SDS011;23258;49.718;11.082;2023-08-08T12:56:19;1.15;;;1.08;;
37383;SDS011;23258;49.718;11.082;2023-08-08T12:58:51;1.25;;;0.90;;
37383;SDS011;23258;49.718;11.082;2023-08-08T13:01:21;1.02;;;1.02;;
37383;SDS011;23258;49.718;11.082;2023-08-08T13:03:51;0.90;;;0.90;;
37383;SDS011;23258;49.718;11.082;2023-08-08T13:06:41;0.90;;;0.90;;
37383;SDS011;23258;49.718;11.082;2023-08-08T13:09:10;1.33;;;1.10;;
37383;SDS011;23258;49.718;11.082;2023-08-08T13:11:41;1.40;;;1.30;;
37383;SDS011;23258;49.718;11.082;2023-08-08T13:14:14;1.15;;;0.88;;
37383;SDS011;23258;49.718;11.082;2023-08-08T13:16:44;1.60;;;1.17;;
37383;SDS011;23258;49.718;11.082;2023-08-08T13:19:14;1.23;;;0.82;;
37383;SDS011;23258;49.718;11.082;2023-08-08T13:21:46;1.42;;;1.05;;
37383;SDS011;23258;49.718;11.082;2023-08-08T13:24:17;0.95;;;0.95;;
37383;SDS011;23258;49.718;11.082;2023-08-08T13:26:47;1.17;;;1.10;;
37383;SDS011;23258;49.718;11.082;2023-08-08T13:29:19;0.95;;;0.95;;
37383;SDS011;23258;49.718;11.082;2023-08-08T13:31:49;1.23;;;1.15;;
37383;SDS011;23258;49.718;11.082;2023-08-08T13:34:19;0.93;;;0.90;;
37383;SDS011;23258;49.718;11.082;2023-08-08T13:36:48;0.80;;;0.80;;
37383;SDS011;23258;49.718;11.082;2023-08-08T13:39:18;1.27;;;1.25;;
37383;SDS011;23258;49.718;11.082;2023-08-08T13:41:48;1.27;;;1.17;;
37383;SDS011;23258;49.718;11.082;2023-08-08T13:44:20;2.08;;;0.93;;
37383;SDS011;23258;49.718;11.082;2023-08-08T13:46:50;1.27;;;1.17;;
37383;SDS011;23258;49.718;11.082;2023-08-08T13:49:22;1.35;;;1.25;;
37383;SDS011;23258;49.718;11.082;2023-08-08T13:51:53;1.10;;;1.00;;
37383;SDS011;23258;49.718;11.082;2023-08-08T13:54:23;2.75;;;1.20;;
37383;SDS011;23258;49.718;11.082;2023-08-08T13:56:53;1.52;;;0.93;;
37383;SDS011;23258;49.718;11.082;2023-08-08T13:59:25;0.85;;;0.85;;
37383;SDS011;23258;49.718;11.082;2023-08-08T14:01:55;1.35;;;1.00;;
37383;SDS011;23258;49.718;11.082;2023-08-08T14:04:25;1.27;;;1.17;;
37383;SDS011;23258;49.718;11.082;2023-08-08T14:06:55;1.58;;;1.20;;
37383;SDS011;23258;49.718;11.082;2023-08-08T14:09:25;1.10;;;1.00;;
37383;SDS011;23258;49.718;11.082;2023-08-08T14:11:54;4.13;;;1.13;;
37383;SDS011;23258;49.718;11.082;2023-08-08T14:14:28;0.85;;;0.85;;
37383;SDS011;23258;49.718;11.082;2023-08-08T14:16:58;1.23;;;1.20;;
37383;SDS011;23258;49.718;11.082;2023-08-08T14:19:28;1.52;;;1.30;;
37383;SDS011;23258;49.718;11.082;2023-08-08T14:21:57;1.30;;;1.10;;
37383;SDS011;23258;49.718;11.082;2023-08-08T14:24:27;1.92;;;1.13;;
37383;SDS011;23258;49.718;11.082;2023-08-08T14:26:57;2.75;;;1.40;;
37383;SDS011;23258;49.718;11.082;2023-08-08T14:29:30;1.13;;;1.02;;
37383;SDS011;23258;49.718;11.082;2023-08-08T14:31:59;0.95;;;0.95;;
37383;SDS011;23258;49.718;11.082;2023-08-08T14:34:29;1.27;;;0.90;;
37383;SDS011;23258;49.718;11.082;2023-08-08T14:37:00;1.23;;;1.13;;
37383;SDS011;23258;49.718;11.082;2023-08-08T14:39:30;1.08;;;1.08;;
37383;SDS011;23258;49.718;11.082;2023-08-08T14:41:59;0.88;;;0.88;;
37383;SDS011;23258;49.718;11.082;2023-08-08T14:44:32;1.20;;;1.10;;
37383;SDS011;23258;49.718;11.082;2023-08-08T14:47:01;0.90;;;0.90;;
37383;SDS011;23258;49.718;11.082;2023-08-08T14:49:31;2.70;;;0.88;;
37383;SDS011;23258;49.718;11.082;2023-08-08T14:52:01;0.98;;;0.90;;
37383;SDS011;23258;49.718;11.082;2023-08-08T14:54:31;1.15;;;1.15;;